Weather at Kyneton Airport

Public forecast

Using degrees Celsius for public forecast. Weather courtesy of forecast.io.

Closest aviation weather report (METAR) to Kyneton Airport

Closest report is Melbourne International Airport, 32.8 nm (60.8 km) SE.

2024/04/18 03:00 (retrieved 33 minutes ago)

YMML 180300Z 27009KT 9999 FEW038 BKN043 16/06 Q1020 RF000/0000

Closest aviation forecast (TAF) to Kyneton Airport

Forecast is more than 12 hours old.

Closest forecast is Queenstown International Airport, 1,188.3 nm (2,200.8 km) ESE.

2024/04/16 06:00 Ammendment (retrieved 2 days ago)

AMD NZQN 160609Z 1606/1612 22008KT 9999 -SHRA BKN050